Time;durP1;ratioP1;P1;durP2;ratioP2;P2;SDS_P1;SDS_P2;PMS_P1;PMS_P2;Temp;Humidity;BMP_temperature;BMP_pressure;BME280_temperature;BME280_humidity;BME280_pressure;Samples;Min_cycle;Max_cycle;Signal;HPM_P1;HPM_P2
2023/10/11 00:01:27;;;;;;;3.83;3.43;;;12.90;95.50;;;;;;4994688;28;20563;-64
2023/10/11 00:03:54;;;;;;;13.23;4.43;;;12.90;95.40;;;;;;5021265;28;20752;-65
2023/10/11 00:06:21;;;;;;;4.30;2.90;;;13.00;95.30;;;;;;4993452;28;21009;-66
2023/10/11 00:08:50;;;;;;;9.80;3.90;;;12.90;95.20;;;;;;5013213;28;20592;-66
2023/10/11 00:11:24;;;;;;;40.80;5.10;;;13.00;95.20;;;;;;4996283;28;20481;-66
2023/10/11 00:13:53;;;;;;;18.20;5.13;;;13.00;95.10;;;;;;4996897;28;20484;-67
2023/10/11 00:16:21;;;;;;;3.67;2.60;;;13.00;94.90;;;;;;5009823;28;20881;-66
2023/10/11 00:18:49;;;;;;;8.87;3.00;;;;;;;;;;5000856;28;20485;-66
2023/10/11 00:21:16;;;;;;;12.20;4.23;;;12.90;95.00;;;;;;5014869;28;20469;-67
2023/10/11 00:23:45;;;;;;;9.10;3.40;;;12.80;94.80;;;;;;5024419;28;20485;-67
2023/10/11 00:26:14;;;;;;;6.73;3.17;;;12.90;94.90;;;;;;5008945;28;20966;-65
2023/10/11 00:28:43;;;;;;;8.60;3.67;;;12.80;94.90;;;;;;5006445;28;20604;-64
2023/10/11 00:31:16;;;;;;;3.53;3.07;;;12.80;95.00;;;;;;5001196;28;20501;-65
2023/10/11 00:33:44;;;;;;;11.70;3.40;;;12.80;95.10;;;;;;4993863;28;20481;-65
2023/10/11 00:36:11;;;;;;;4.27;2.97;;;12.80;95.30;;;;;;5021458;28;20477;-64
2023/10/11 00:38:47;;;;;;;20.83;4.10;;;12.70;95.10;;;;;;5001289;28;20479;-65
2023/10/11 00:41:17;;;;;;;5.90;3.20;;;12.70;95.00;;;;;;5012680;28;21032;-64
2023/10/11 00:43:50;;;;;;;10.93;4.43;;;12.50;95.20;;;;;;4998801;28;20491;-65
2023/10/11 00:46:20;;;;;;;10.63;3.70;;;12.40;95.30;;;;;;4989039;28;20496;-64
2023/10/11 00:48:57;;;;;;;5.53;3.27;;;12.40;95.10;;;;;;5021586;28;20484;-64
2023/10/11 00:51:27;;;;;;;5.03;3.00;;;12.40;95.10;;;;;;4995769;28;20530;-64
2023/10/11 00:53:54;;;;;;;15.80;4.73;;;12.40;94.90;;;;;;4999414;28;20488;-64
2023/10/11 00:56:21;;;;;;;5.43;3.10;;;12.40;94.80;;;;;;4997583;28;20477;-65
2023/10/11 00:58:51;;;;;;;6.50;3.03;;;12.40;94.90;;;;;;5000943;28;20491;-64
2023/10/11 01:01:22;;;;;;;8.80;3.50;;;12.40;95.00;;;;;;4999354;28;20475;-67
2023/10/11 01:03:49;;;;;;;4.90;3.20;;;12.40;95.00;;;;;;5007005;28;21072;-66
2023/10/11 01:06:17;;;;;;;21.47;4.20;;;12.40;95.00;;;;;;5016011;28;20834;-67
2023/10/11 01:08:48;;;;;;;4.80;3.50;;;12.50;94.90;;;;;;5007924;28;20553;-67
2023/10/11 01:11:16;;;;;;;9.03;4.20;;;12.40;94.90;;;;;;4997531;28;21134;-67
2023/10/11 01:13:50;;;;;;;13.73;4.10;;;12.40;95.00;;;;;;5015830;28;21145;-67
2023/10/11 01:16:24;;;;;;;30.30;3.80;;;12.40;95.10;;;;;;4997224;28;20496;-66
2023/10/11 01:18:51;;;;;;;6.53;3.03;;;12.40;95.10;;;;;;5000870;28;20541;-66
2023/10/11 01:21:20;;;;;;;4.73;2.50;;;12.40;95.10;;;;;;4979306;28;20483;-67
2023/10/11 01:23:49;;;;;;;7.30;3.50;;;12.40;95.00;;;;;;4998471;28;20490;-66
2023/10/11 01:26:17;;;;;;;5.63;3.67;;;12.30;94.80;;;;;;5002330;28;20866;-66
2023/10/11 01:28:46;;;;;;;6.80;3.37;;;12.30;94.80;;;;;;5022319;28;21017;-67
2023/10/11 01:31:16;;;;;;;4.90;3.00;;;12.30;94.90;;;;;;4996532;28;20484;-67
2023/10/11 01:33:46;;;;;;;24.20;3.37;;;12.20;94.80;;;;;;4995155;28;20500;-66
2023/10/11 01:36:15;;;;;;;4.70;3.63;;;12.20;94.70;;;;;;5001823;28;21261;-65
2023/10/11 01:38:47;;;;;;;6.67;3.90;;;12.20;94.90;;;;;;5000754;28;20496;-65
2023/10/11 01:41:16;;;;;;;16.23;4.23;;;12.10;94.80;;;;;;4998643;28;20470;-64
2023/10/11 01:43:46;;;;;;;12.33;3.37;;;12.10;94.80;;;;;;5003371;28;20493;-64
2023/10/11 01:46:15;;;;;;;8.07;4.40;;;;;;;;;;5001470;28;21499;-65
2023/10/11 01:48:43;;;;;;;5.77;4.10;;;12.10;95.10;;;;;;4994079;28;20893;-64
2023/10/11 01:51:11;;;;;;;6.07;3.77;;;12.10;95.20;;;;;;4988316;28;20476;-65
2023/10/11 01:53:38;;;;;;;11.27;3.70;;;12.10;95.10;;;;;;5016218;28;21212;-64
2023/10/11 01:56:07;;;;;;;6.10;3.70;;;12.10;95.10;;;;;;5015128;28;20807;-64
2023/10/11 01:58:37;;;;;;;6.80;3.33;;;12.00;95.10;;;;;;5016126;28;20496;-65
2023/10/11 02:01:05;;;;;;;5.80;3.40;;;11.90;95.00;;;;;;5014932;28;20473;-64
2023/10/11 02:03:32;;;;;;;15.20;3.60;;;11.70;94.90;;;;;;5017293;28;20492;-64
2023/10/11 02:06:04;;;;;;;4.27;2.60;;;11.70;94.90;;;;;;5016142;28;20495;-64
2023/10/11 02:08:36;;;;;;;20.03;3.90;;;11.70;95.00;;;;;;5017101;28;20567;-64
2023/10/11 02:11:05;;;;;;;4.53;2.87;;;11.70;94.90;;;;;;5014458;28;22201;-64
2023/10/11 02:13:34;;;;;;;3.93;3.23;;;11.70;94.90;;;;;;5018254;28;20488;-64
2023/10/11 02:16:01;;;;;;;13.63;3.03;;;11.70;94.90;;;;;;5017762;28;20976;-64
2023/10/11 02:18:28;;;;;;;6.37;4.90;;;11.70;95.10;;;;;;5017006;28;20480;-65
2023/10/11 02:20:55;;;;;;;5.00;3.13;;;11.70;95.10;;;;;;5019326;28;21061;-64
2023/10/11 02:23:23;;;;;;;14.93;3.60;;;11.70;95.00;;;;;;5018702;28;20481;-65
2023/10/11 02:25:49;;;;;;;4.70;3.50;;;11.70;94.90;;;;;;5017325;28;20477;-64
2023/10/11 02:28:21;;;;;;;6.83;3.53;;;11.70;94.90;;;;;;5015473;28;21612;-64
2023/10/11 02:30:50;;;;;;;8.10;4.33;;;11.70;95.00;;;;;;5020556;28;20834;-64
2023/10/11 02:33:20;;;;;;;7.53;3.37;;;11.70;95.00;;;;;;5021572;28;21257;-64
2023/10/11 02:35:55;;;;;;;16.27;4.47;;;11.70;94.80;;;;;;5018822;28;20909;-65
2023/10/11 02:38:22;;;;;;;6.10;3.33;;;11.70;94.70;;;;;;5012880;28;21064;-64
2023/10/11 02:40:55;;;;;;;6.30;3.23;;;11.60;94.70;;;;;;5019524;28;21023;-64
2023/10/11 02:43:26;;;;;;;4.33;3.33;;;11.60;95.00;;;;;;5016430;28;20501;-64
2023/10/11 02:45:54;;;;;;;7.17;4.00;;;11.60;95.30;;;;;;5014080;28;20496;-64
2023/10/11 02:48:24;;;;;;;7.47;3.73;;;11.60;95.20;;;;;;5026506;28;20519;-64
2023/10/11 02:50:54;;;;;;;8.77;3.60;;;11.60;95.20;;;;;;5017776;28;20483;-64
2023/10/11 02:53:24;;;;;;;7.23;5.27;;;11.60;95.30;;;;;;5018193;28;20469;-64
2023/10/11 02:56:03;;;;;;;15.93;4.83;;;11.50;95.20;;;;;;5018763;28;20632;-66
2023/10/11 02:58:30;;;;;;;11.53;3.03;;;11.50;95.10;;;;;;5017691;28;20478;-66
2023/10/11 03:01:02;;;;;;;8.03;4.20;;;11.50;95.10;;;;;;5018279;28;20465;-66
2023/10/11 03:03:29;;;;;;;19.27;4.53;;;11.40;94.80;;;;;;5015833;28;20481;-66
2023/10/11 03:05:56;;;;;;;7.10;2.37;;;11.30;94.60;;;;;;5016433;28;20487;-66
2023/10/11 03:08:26;;;;;;;19.63;4.17;;;11.20;94.90;;;;;;5016214;28;20480;-66
2023/10/11 03:10:54;;;;;;;6.53;4.13;;;10.90;95.50;;;;;;5024746;28;20480;-66
2023/10/11 03:13:29;;;;;;;11.70;3.90;;;10.70;95.70;;;;;;5016383;28;20485;-66
2023/10/11 03:15:58;;;;;;;7.30;3.20;;;10.60;96.10;;;;;;5017100;28;20515;-66
2023/10/11 03:18:26;;;;;;;18.93;5.20;;;10.60;97.30;;;;;;5007888;28;20485;-66
2023/10/11 03:21:07;;;;;;;5.73;3.70;;;10.60;97.70;;;;;;5032390;28;20904;-66
2023/10/11 03:23:37;;;;;;;6.03;3.20;;;10.50;97.40;;;;;;5008651;28;20498;-66
2023/10/11 03:26:09;;;;;;;15.60;4.33;;;10.30;97.20;;;;;;5029484;28;20888;-64
2023/10/11 03:28:35;;;;;;;28.37;4.77;;;10.20;97.20;;;;;;5007708;28;20480;-64
2023/10/11 03:31:04;;;;;;;14.90;4.57;;;10.10;97.90;;;;;;5014502;28;20475;-64
2023/10/11 03:33:32;;;;;;;5.10;3.40;;;10.10;98.20;;;;;;5023673;28;20476;-64
2023/10/11 03:36:04;;;;;;;9.03;4.00;;;10.20;98.60;;;;;;5018337;28;20512;-64
2023/10/11 03:38:33;;;;;;;24.57;4.17;;;10.30;98.40;;;;;;5014242;28;20535;-65
2023/10/11 03:41:14;;;;;;;14.10;3.67;;;10.40;97.90;;;;;;5018723;28;20991;-65
2023/10/11 03:43:42;;;;;;;4.97;2.50;;;10.50;97.50;;;;;;5005948;28;21198;-65
2023/10/11 03:46:13;;;;;;;6.57;2.97;;;10.70;97.00;;;;;;5017408;28;20480;-65
2023/10/11 03:48:45;;;;;;;11.40;3.00;;;10.70;96.50;;;;;;5018848;28;20835;-64
2023/10/11 03:51:19;;;;;;;7.50;3.40;;;10.80;96.60;;;;;;5018032;28;20500;-64
2023/10/11 03:53:47;;;;;;;5.73;3.23;;;10.80;96.70;;;;;;5002121;28;20479;-64
2023/10/11 03:56:15;;;;;;;13.50;4.20;;;10.70;97.20;;;;;;5028899;28;21023;-63
2023/10/11 03:58:43;;;;;;;17.97;5.40;;;10.60;97.40;;;;;;5018027;28;20513;-64
2023/10/11 04:01:14;;;;;;;4.80;2.90;;;10.60;97.30;;;;;;5016959;28;21042;-64
2023/10/11 04:03:41;;;;;;;6.17;3.90;;;10.60;96.90;;;;;;5015447;28;20542;-64
2023/10/11 04:06:14;;;;;;;12.67;3.80;;;10.70;96.70;;;;;;5017351;28;20489;-66
2023/10/11 04:08:43;;;;;;;16.80;4.40;;;10.70;96.50;;;;;;5016419;28;20473;-66
2023/10/11 04:11:18;;;;;;;9.47;3.87;;;10.70;96.40;;;;;;5015692;28;20481;-66
2023/10/11 04:13:49;;;;;;;6.27;3.37;;;10.80;96.10;;;;;;5015540;28;20575;-67
2023/10/11 04:16:17;;;;;;;3.90;2.70;;;10.70;96.00;;;;;;5016211;28;20488;-66
2023/10/11 04:18:45;;;;;;;6.67;3.17;;;10.70;95.90;;;;;;5017605;28;20477;-66
2023/10/11 04:21:36;;;;;;;11.33;2.60;;;10.70;95.80;;;;;;5017370;28;21088;-66
2023/10/11 04:24:06;;;;;;;9.43;3.13;;;10.70;95.90;;;;;;5015512;28;20484;-66
2023/10/11 04:26:37;;;;;;;7.33;3.03;;;10.70;95.80;;;;;;5012535;28;20567;-66
2023/10/11 04:29:18;;;;;;;9.30;2.83;;;10.60;95.80;;;;;;5004722;28;20492;-66
2023/10/11 04:32:09;;;;;;;11.83;2.57;;;10.60;95.80;;;;;;5013713;28;20473;-67
2023/10/11 04:34:38;;;;;;;6.43;3.47;;;10.60;95.80;;;;;;5011938;28;20483;-66
2023/10/11 04:37:07;;;;;;;9.00;3.43;;;10.60;95.80;;;;;;5009962;28;20998;-66
2023/10/11 04:39:34;;;;;;;30.50;3.70;;;10.60;95.90;;;;;;5029075;28;20473;-67
2023/10/11 04:42:02;;;;;;;6.63;3.00;;;10.60;96.00;;;;;;5017793;28;21276;-66
2023/10/11 04:44:41;;;;;;;15.63;4.10;;;10.60;96.10;;;;;;5015025;28;21054;-67
2023/10/11 04:47:10;;;;;;;16.93;4.20;;;10.60;95.90;;;;;;5016897;28;20584;-65
2023/10/11 04:49:37;;;;;;;26.70;5.10;;;10.60;95.80;;;;;;5013143;28;21304;-64
2023/10/11 04:52:10;;;;;;;14.17;4.20;;;10.60;95.80;;;;;;5015015;28;20550;-65
2023/10/11 04:54:42;;;;;;;7.33;3.90;;;10.70;96.00;;;;;;4996254;28;20484;-64
2023/10/11 04:57:16;;;;;;;4.47;2.93;;;10.70;95.90;;;;;;5023365;28;20476;-64
2023/10/11 04:59:46;;;;;;;5.00;3.63;;;10.70;95.80;;;;;;5010428;28;20487;-64
2023/10/11 05:02:23;;;;;;;5.67;3.47;;;10.70;95.80;;;;;;4989392;28;20561;-64
2023/10/11 05:04:51;;;;;;;18.30;4.90;;;10.60;95.70;;;;;;5014006;28;20487;-64
2023/10/11 05:07:21;;;;;;;16.37;4.40;;;10.50;95.60;;;;;;5016066;28;20480;-64
2023/10/11 05:09:56;;;;;;;5.77;3.50;;;10.50;95.60;;;;;;5010353;28;21176;-64
2023/10/11 05:12:24;;;;;;;7.33;4.60;;;10.50;95.80;;;;;;5012590;28;20487;-64
2023/10/11 05:15:06;;;;;;;25.33;5.30;;;10.50;95.80;;;;;;5032812;28;20484;-66
2023/10/11 05:17:41;;;;;;;6.53;3.70;;;10.50;95.90;;;;;;5020074;28;20487;-64
2023/10/11 05:20:23;;;;;;;9.00;5.63;;;10.50;95.80;;;;;;5021586;28;20480;-64
2023/10/11 05:22:49;;;;;;;5.40;2.43;;;10.40;95.80;;;;;;5017561;28;20936;-64
2023/10/11 05:25:39;;;;;;;7.20;3.73;;;10.40;95.90;;;;;;5027462;28;20593;-64
2023/10/11 05:28:26;;;;;;;22.77;5.90;;;10.40;95.90;;;;;;5014375;28;20671;-64
2023/10/11 05:31:18;;;;;;;6.63;3.87;;;10.40;96.00;;;;;;5019041;28;20947;-63
2023/10/11 05:33:59;;;;;;;8.00;4.03;;;10.30;96.00;;;;;;5017735;28;20824;-64
2023/10/11 05:36:48;;;;;;;6.20;4.30;;;10.40;96.20;;;;;;5018209;28;20944;-64
2023/10/11 05:52:57;;;;;;;5.70;3.50;;;10.20;96.80;;;;;;5020026;28;20488;-66
2023/10/11 05:55:24;;;;;;;26.30;6.33;;;10.20;96.50;;;;;;5019372;28;20748;-66
2023/10/11 05:57:51;;;;;;;6.90;3.83;;;10.30;96.50;;;;;;5020226;28;20701;-66
2023/10/11 06:00:25;;;;;;;12.83;6.47;;;10.40;96.80;;;;;;5018085;28;20480;-66
2023/10/11 06:02:53;;;;;;;10.07;3.90;;;10.30;96.60;;;;;;5018684;28;20471;-66
2023/10/11 06:05:23;;;;;;;14.50;5.90;;;10.40;96.90;;;;;;5023118;28;20491;-66
2023/10/11 06:08:03;;;;;;;23.03;7.37;;;10.40;96.90;;;;;;5018027;28;20515;-66
2023/10/11 06:10:41;;;;;;;18.70;8.10;;;10.50;96.80;;;;;;5009699;28;21201;-66
2023/10/11 06:13:13;;;;;;;6.90;5.10;;;10.60;96.80;;;;;;5019585;28;20477;-66
2023/10/11 06:15:43;;;;;;;9.53;6.03;;;;;;;;;;5019449;28;21068;-66
2023/10/11 06:18:36;;;;;;;14.63;5.77;;;10.70;96.70;;;;;;5016471;28;20484;-66
2023/10/11 06:21:05;;;;;;;12.77;5.30;;;10.80;96.60;;;;;;5019174;28;20472;-66
2023/10/11 06:23:32;;;;;;;13.93;4.70;;;10.80;96.70;;;;;;5019219;28;20468;-66
2023/10/11 06:26:20;;;;;;;21.83;6.20;;;10.90;96.80;;;;;;5018936;28;20581;-65
2023/10/11 06:28:47;;;;;;;15.33;5.63;;;10.90;97.00;;;;;;5017579;28;21237;-64
2023/10/11 06:31:14;;;;;;;11.00;5.00;;;11.00;97.00;;;;;;5016747;28;20480;-64
2023/10/11 06:33:44;;;;;;;6.00;4.00;;;11.10;98.10;;;;;;5019258;28;20487;-64
2023/10/11 06:36:16;;;;;;;10.97;5.70;;;11.20;98.70;;;;;;5019071;28;20501;-64
2023/10/11 06:38:44;;;;;;;10.00;5.30;;;11.50;99.10;;;;;;5014332;28;20495;-65
2023/10/11 06:44:00;;;;;;;15.13;5.40;;;11.90;99.70;;;;;;5018008;28;20468;-65
2023/10/11 06:46:27;;;;;;;6.83;4.30;;;12.00;99.90;;;;;;5018121;28;20465;-64
2023/10/11 06:48:55;;;;;;;5.90;4.27;;;12.30;99.90;;;;;;5019542;28;20492;-64
2023/10/11 06:51:23;;;;;;;13.90;5.97;;;13.10;99.90;;;;;;5017009;28;20476;-64
2023/10/11 06:53:50;;;;;;;16.07;6.23;;;14.30;99.90;;;;;;5034445;28;20487;-65
2023/10/11 06:56:17;;;;;;;19.80;8.60;;;14.80;99.80;;;;;;5009777;28;20634;-65
2023/10/11 06:58:45;;;;;;;18.47;8.63;;;16.40;97.40;;;;;;5028204;28;20489;-64
2023/10/11 07:01:14;;;;;;;16.70;7.97;;;17.30;96.60;;;;;;5017006;28;20499;-65
2023/10/11 07:03:41;;;;;;;8.80;6.57;;;17.70;95.60;;;;;;5018956;28;20487;-66
2023/10/11 07:06:12;;;;;;;12.53;6.80;;;19.10;93.80;;;;;;5016740;28;20480;-66
2023/10/11 07:08:49;;;;;;;12.73;4.80;;;19.40;93.40;;;;;;5017544;28;20576;-66
2023/10/11 07:11:40;;;;;;;16.10;5.83;;;20.20;93.00;;;;;;5016876;28;20595;-66
2023/10/11 07:14:14;;;;;;;15.47;4.70;;;20.50;92.10;;;;;;5019304;28;21096;-65
2023/10/11 07:16:44;;;;;;;14.23;5.20;;;20.80;91.80;;;;;;5017660;28;20477;-66
2023/10/11 07:19:15;;;;;;;8.50;4.50;;;21.20;91.60;;;;;;5016661;28;20562;-66
2023/10/11 07:21:48;;;;;;;5.77;3.53;;;21.30;91.30;;;;;;5016654;28;21958;-65
2023/10/11 07:24:31;;;;;;;8.23;4.73;;;21.50;91.40;;;;;;5017950;28;20476;-67
2023/10/11 07:26:59;;;;;;;79.77;7.43;;;21.80;91.00;;;;;;5016232;28;20487;-66
2023/10/11 07:29:33;;;;;;;17.37;5.13;;;22.10;90.90;;;;;;5010544;28;20487;-66
2023/10/11 07:32:00;;;;;;;16.00;4.73;;;22.40;90.80;;;;;;5018641;28;20484;-67
2023/10/11 07:34:27;;;;;;;7.90;4.77;;;22.40;90.00;;;;;;5029643;28;21465;-66
2023/10/11 07:36:55;;;;;;;9.20;5.47;;;22.70;89.50;;;;;;5017959;28;20854;-66
2023/10/11 07:39:26;;;;;;;11.17;4.10;;;22.70;88.70;;;;;;5013648;28;20515;-66
2023/10/11 07:42:00;;;;;;;17.60;4.47;;;22.70;89.00;;;;;;5019498;28;21011;-66
2023/10/11 07:44:30;;;;;;;11.20;5.20;;;22.60;89.60;;;;;;5012384;28;21554;-67
2023/10/11 07:46:57;;;;;;;17.03;3.87;;;22.80;89.40;;;;;;5015068;28;20976;-66
2023/10/11 07:49:24;;;;;;;16.93;5.37;;;22.80;88.60;;;;;;5015386;28;20487;-67
2023/10/11 07:51:53;;;;;;;7.90;4.70;;;22.70;89.10;;;;;;5017125;28;20487;-67
2023/10/11 07:54:21;;;;;;;22.53;4.83;;;22.40;89.00;;;;;;5016604;28;20566;-66
2023/10/11 07:56:52;;;;;;;6.90;4.00;;;22.30;89.50;;;;;;5018174;28;21144;-66
2023/10/11 07:59:24;;;;;;;26.63;4.70;;;22.10;89.50;;;;;;5017807;28;20487;-66
2023/10/11 08:01:53;;;;;;;9.40;3.97;;;22.10;90.30;;;;;;5015417;28;20479;-69
2023/10/11 08:04:27;;;;;;;4.60;3.00;;;22.10;90.70;;;;;;5010974;28;20492;-67
2023/10/11 08:06:59;;;;;;;15.67;4.90;;;22.00;90.30;;;;;;5012421;28;20482;-70
2023/10/11 08:09:27;;;;;;;13.57;3.87;;;21.90;90.60;;;;;;5017162;28;21034;-70
2023/10/11 08:11:56;;;;;;;9.80;4.23;;;21.70;90.30;;;;;;5018567;28;20457;-70
2023/10/11 08:14:28;;;;;;;30.37;4.00;;;21.60;90.50;;;;;;5013720;28;21308;-70
2023/10/11 08:16:56;;;;;;;19.17;5.07;;;21.50;90.50;;;;;;5017845;28;20488;-69
2023/10/11 08:19:23;;;;;;;7.90;3.33;;;21.50;91.70;;;;;;5014245;28;20568;-69
2023/10/11 08:21:55;;;;;;;6.60;3.93;;;;;;;;;;5018538;28;20847;-69
2023/10/11 08:24:25;;;;;;;10.40;5.33;;;21.40;91.10;;;;;;5004720;28;20469;-68
2023/10/11 08:26:53;;;;;;;19.90;4.40;;;21.20;91.40;;;;;;5017373;28;20458;-70
2023/10/11 08:29:29;;;;;;;6.77;3.97;;;21.20;91.80;;;;;;5015650;28;20460;-68
2023/10/11 08:31:58;;;;;;;10.60;3.50;;;21.20;91.50;;;;;;5014790;28;20476;-69
2023/10/11 08:34:26;;;;;;;5.63;3.43;;;21.20;91.90;;;;;;5017319;28;20467;-71
2023/10/11 08:36:55;;;;;;;33.43;6.83;;;21.20;91.80;;;;;;5014565;28;20459;-70
2023/10/11 08:39:27;;;;;;;9.60;4.60;;;21.00;91.80;;;;;;5018594;28;20473;-70
2023/10/11 08:41:58;;;;;;;6.77;4.33;;;21.20;92.10;;;;;;5010029;28;20993;-69
2023/10/11 08:44:27;;;;;;;15.73;4.63;;;21.20;91.30;;;;;;5020289;28;20460;-69
2023/10/11 08:46:57;;;;;;;8.03;4.10;;;21.20;91.30;;;;;;5021941;28;20962;-69
2023/10/11 08:49:24;;;;;;;9.07;4.23;;;21.20;91.80;;;;;;5020512;28;20510;-70
2023/10/11 08:51:56;;;;;;;8.20;4.13;;;21.10;91.30;;;;;;5022205;28;21049;-68
2023/10/11 08:54:26;;;;;;;29.00;4.60;;;21.10;91.90;;;;;;5023471;28;21464;-69
2023/10/11 08:56:54;;;;;;;10.73;5.20;;;21.00;91.50;;;;;;5022018;28;20479;-68
2023/10/11 08:59:25;;;;;;;10.50;4.30;;;21.10;91.80;;;;;;5019056;28;20541;-71
2023/10/11 09:01:59;;;;;;;21.73;4.63;;;21.10;91.30;;;;;;5023914;28;20512;-70
2023/10/11 09:04:27;;;;;;;30.13;7.00;;;21.10;91.90;;;;;;5019681;28;20962;-69
2023/10/11 09:06:57;;;;;;;8.70;4.10;;;21.30;92.30;;;;;;5020353;28;20689;-70
2023/10/11 09:09:39;;;;;;;36.23;4.87;;;21.40;91.80;;;;;;5012096;28;20484;-68
2023/10/11 09:14:58;;;;;;;35.67;6.27;;;21.60;91.30;;;;;;5020074;28;20464;-70
2023/10/11 09:17:27;;;;;;;10.23;4.70;;;21.60;91.90;;;;;;5017801;28;20464;-66
2023/10/11 09:19:58;;;;;;;14.90;4.93;;;21.60;91.80;;;;;;5021470;28;20476;-66
2023/10/11 09:22:25;;;;;;;13.40;3.90;;;21.60;91.20;;;;;;5019978;28;20473;-67
2023/10/11 09:25:05;;;;;;;5.57;3.73;;;21.60;91.60;;;;;;5020569;28;21022;-67
2023/10/11 09:27:48;;;;;;;15.83;4.57;;;21.50;91.90;;;;;;5018706;28;20477;-68
2023/10/11 09:30:19;;;;;;;14.63;3.77;;;21.50;92.10;;;;;;5010278;28;20507;-67
2023/10/11 09:32:51;;;;;;;12.87;4.07;;;21.60;92.60;;;;;;5015393;28;20594;-67
2023/10/11 09:35:26;;;;;;;6.27;3.93;;;21.70;92.10;;;;;;5026257;28;20479;-67
2023/10/11 09:37:55;;;;;;;16.67;4.83;;;21.90;91.90;;;;;;5019517;28;20492;-67
2023/10/11 09:40:28;;;;;;;15.97;6.10;;;22.10;92.60;;;;;;5019223;28;20484;-66
2023/10/11 09:43:00;;;;;;;22.00;4.73;;;22.20;91.70;;;;;;5027068;28;20477;-68
2023/10/11 09:45:40;;;;;;;10.93;4.70;;;;;;;;;;5018613;28;20485;-67
2023/10/11 09:48:12;;;;;;;10.93;4.43;;;22.20;91.50;;;;;;5014847;28;20463;-65
2023/10/11 09:50:41;;;;;;;18.40;5.20;;;22.40;92.40;;;;;;5020294;28;20870;-67
2023/10/11 09:53:11;;;;;;;6.80;3.70;;;22.40;91.70;;;;;;5022931;28;21021;-68
2023/10/11 09:55:44;;;;;;;11.80;5.63;;;22.40;91.40;;;;;;5020342;28;20559;-68
2023/10/11 09:58:19;;;;;;;8.70;4.73;;;22.30;91.20;;;;;;5011506;28;20626;-69
2023/10/11 10:00:56;;;;;;;16.50;4.90;;;22.50;92.10;;;;;;5019419;28;21371;-68
2023/10/11 10:03:25;;;;;;;37.40;5.00;;;22.60;92.00;;;;;;5006139;28;20513;-67
2023/10/11 10:06:21;;;;;;;12.23;4.20;;;22.80;92.10;;;;;;5006784;28;20491;-67
2023/10/11 10:09:22;;;;;;;5.77;3.50;;;23.20;92.40;;;;;;5005113;28;20463;-66
2023/10/11 10:12:20;;;;;;;8.43;4.70;;;23.40;91.70;;;;;;5019606;28;21348;-66
2023/10/11 10:14:50;;;;;;;20.43;5.43;;;23.60;91.30;;;;;;5016487;28;20516;-67
2023/10/11 10:17:18;;;;;;;16.63;4.30;;;23.80;91.60;;;;;;5019759;28;20485;-67
2023/10/11 10:19:47;;;;;;;8.97;3.57;;;24.00;91.30;;;;;;5021094;28;21682;-67
2023/10/11 10:22:16;;;;;;;14.20;4.30;;;24.20;91.00;;;;;;5019864;28;20810;-68
2023/10/11 10:24:47;;;;;;;29.07;5.80;;;24.10;90.70;;;;;;5019127;28;20908;-67
2023/10/11 10:27:37;;;;;;;18.07;6.33;;;24.00;90.70;;;;;;5019576;28;20834;-66
2023/10/11 10:30:07;;;;;;;7.40;4.37;;;24.10;91.10;;;;;;5008600;28;20485;-66
2023/10/11 10:32:34;;;;;;;10.57;4.50;;;24.30;91.00;;;;;;5017022;28;20829;-66
2023/10/11 10:35:36;;;;;;;17.73;4.93;;;24.10;90.00;;;;;;5014944;28;20482;-68
2023/10/11 10:38:09;;;;;;;15.50;4.00;;;24.20;90.40;;;;;;5026315;28;20476;-66
2023/10/11 10:40:42;;;;;;;9.30;3.60;;;24.20;89.80;;;;;;5012678;28;20484;-68
2023/10/11 10:43:27;;;;;;;6.63;3.83;;;24.20;90.30;;;;;;5013159;28;20481;-67
2023/10/11 10:45:59;;;;;;;16.63;4.57;;;24.60;90.40;;;;;;5016090;28;20499;-66
2023/10/11 10:48:31;;;;;;;11.93;4.43;;;24.80;90.00;;;;;;5019300;28;20842;-67
2023/10/11 10:51:03;;;;;;;8.60;4.33;;;24.90;90.20;;;;;;5018927;28;20906;-66
2023/10/11 10:53:38;;;;;;;21.10;4.50;;;24.70;88.80;;;;;;5013566;28;20463;-67
2023/10/11 10:56:04;;;;;;;29.07;8.90;;;24.60;89.80;;;;;;5009853;28;20451;-66
2023/10/11 10:58:32;;;;;;;18.43;5.03;;;24.50;90.30;;;;;;5007293;28;20497;-66
2023/10/11 11:00:59;;;;;;;11.43;5.20;;;24.70;90.80;;;;;;5023584;28;20548;-65
2023/10/11 11:03:31;;;;;;;9.00;3.90;;;24.60;88.90;;;;;;5016794;28;20448;-66
2023/10/11 11:06:01;;;;;;;8.07;4.57;;;24.50;89.60;;;;;;5018220;28;20550;-72
2023/10/11 11:08:28;;;;;;;7.63;4.30;;;24.60;90.10;;;;;;5009749;28;20454;-69
2023/10/11 11:11:18;;;;;;;15.27;4.83;;;24.60;90.30;;;;;;5015538;28;20817;-69
2023/10/11 11:13:47;;;;;;;6.77;4.20;;;24.60;90.00;;;;;;5018844;28;20564;-70
2023/10/11 11:16:17;;;;;;;6.20;4.67;;;24.70;90.80;;;;;;5017785;28;20480;-70
2023/10/11 11:18:44;;;;;;;37.90;5.60;;;;;;;;;;5017386;28;20459;-71
2023/10/11 11:21:20;;;;;;;10.80;5.13;;;24.70;88.80;;;;;;5010464;28;21064;-68
2023/10/11 11:23:49;;;;;;;9.97;4.80;;;24.70;88.40;;;;;;5002792;28;20979;-71
2023/10/11 11:26:16;;;;;;;13.60;4.60;;;24.60;88.80;;;;;;5021939;28;20474;-69
2023/10/11 11:28:43;;;;;;;10.17;4.07;;;24.90;89.90;;;;;;5017692;28;20840;-71
2023/10/11 11:31:13;;;;;;;8.70;3.70;;;25.00;90.50;;;;;;5017878;28;20458;-71
2023/10/11 11:33:47;;;;;;;21.57;3.57;;;25.30;87.10;;;;;;5017534;28;20464;-70
2023/10/11 11:36:30;;;;;;;10.00;3.83;;;25.50;88.90;;;;;;5004089;28;20575;-71
2023/10/11 11:38:56;;;;;;;11.83;4.20;;;25.80;87.90;;;;;;5025631;28;20486;-69
2023/10/11 11:41:23;;;;;;;8.13;4.03;;;25.90;86.70;;;;;;5022283;28;20451;-70
2023/10/11 11:43:51;;;;;;;11.13;4.27;;;25.80;85.50;;;;;;5003672;28;20467;-68
2023/10/11 11:46:18;;;;;;;53.00;6.10;;;25.80;84.30;;;;;;5001490;28;20874;-70
2023/10/11 11:48:50;;;;;;;10.40;4.80;;;25.90;84.40;;;;;;4999890;28;20455;-69
2023/10/11 11:51:17;;;;;;;12.80;3.93;;;26.00;85.10;;;;;;4995927;28;20506;-69
2023/10/11 11:53:45;;;;;;;31.33;5.17;;;26.20;88.90;;;;;;4997927;28;20888;-69
2023/10/11 11:56:12;;;;;;;15.97;5.33;;;26.30;85.80;;;;;;4995338;28;20462;-69
2023/10/11 11:58:45;;;;;;;18.07;5.03;;;26.30;83.50;;;;;;4982300;28;20472;-70
2023/10/11 12:01:15;;;;;;;17.97;7.37;;;26.40;84.20;;;;;;5021042;28;21061;-70
2023/10/11 12:03:42;;;;;;;9.53;4.23;;;26.50;84.40;;;;;;4993595;28;20531;-70
2023/10/11 12:06:22;;;;;;;8.40;3.50;;;26.50;84.60;;;;;;4996724;28;20473;-68
2023/10/11 12:08:57;;;;;;;13.03;5.00;;;26.40;83.70;;;;;;4998552;28;20463;-68
2023/10/11 12:11:28;;;;;;;7.57;3.93;;;26.20;84.60;;;;;;5018259;28;20919;-70
2023/10/11 12:13:57;;;;;;;58.30;6.30;;;;;;;;;;4999275;28;20466;-69
2023/10/11 12:16:24;;;;;;;16.93;4.77;;;26.40;84.60;;;;;;4989436;28;20488;-73
2023/10/11 12:18:57;;;;;;;6.30;3.83;;;26.60;84.50;;;;;;4999583;28;20444;-70
2023/10/11 12:21:24;;;;;;;18.17;6.13;;;26.50;85.10;;;;;;5007363;28;20451;-69
2023/10/11 12:23:53;;;;;;;6.83;3.73;;;26.30;85.10;;;;;;4993041;28;20560;-69
2023/10/11 12:26:20;;;;;;;11.97;5.50;;;26.20;84.70;;;;;;5003641;28;20456;-69
2023/10/11 12:28:48;;;;;;;7.93;3.53;;;26.00;85.50;;;;;;5005024;28;20489;-68
2023/10/11 12:31:16;;;;;;;20.13;4.50;;;25.90;84.50;;;;;;5002878;28;20483;-71
2023/10/11 12:33:44;;;;;;;19.83;4.80;;;25.90;85.20;;;;;;5006758;28;20459;-69
2023/10/11 12:36:11;;;;;;;13.10;4.10;;;25.90;85.80;;;;;;4996411;28;20876;-69
2023/10/11 12:38:39;;;;;;;12.77;3.40;;;26.20;86.80;;;;;;5004033;28;20492;-69
2023/10/11 12:41:14;;;;;;;12.00;4.00;;;26.50;86.20;;;;;;5004387;28;20464;-70
2023/10/11 12:43:40;;;;;;;21.17;4.40;;;26.50;85.10;;;;;;5002450;28;20480;-70
2023/10/11 12:46:07;;;;;;;15.57;4.27;;;26.60;84.00;;;;;;5030760;28;21491;-69
2023/10/11 12:48:37;;;;;;;19.73;3.90;;;26.80;83.70;;;;;;5010369;28;20476;-71
2023/10/11 12:51:05;;;;;;;6.00;3.83;;;26.90;84.00;;;;;;5009336;28;20491;-70
2023/10/11 12:53:31;;;;;;;5.70;3.97;;;27.10;84.00;;;;;;5017821;28;20526;-69
2023/10/11 12:55:58;;;;;;;8.50;3.80;;;27.30;83.10;;;;;;5011351;28;20537;-67
2023/10/11 12:58:38;;;;;;;21.13;4.63;;;27.40;81.00;;;;;;5008323;28;20475;-67
2023/10/11 13:01:11;;;;;;;11.30;3.03;;;27.60;80.00;;;;;;5001309;28;20459;-67
2023/10/11 13:03:38;;;;;;;18.60;4.67;;;27.70;81.90;;;;;;5011174;28;21011;-67
2023/10/11 13:06:09;;;;;;;10.53;4.67;;;27.30;79.80;;;;;;5008263;28;20879;-68
2023/10/11 13:09:36;;;;;;;7.60;3.53;;;27.60;82.30;;;;;;5009911;28;20995;-67
2023/10/11 13:12:03;;;;;;;12.97;4.20;;;27.50;80.30;;;;;;5006615;28;20443;-68
2023/10/11 13:14:33;;;;;;;13.33;3.47;;;27.30;79.60;;;;;;5011563;28;20452;-66
2023/10/11 13:17:04;;;;;;;6.60;3.00;;;27.40;80.60;;;;;;5001510;28;21646;-67
2023/10/11 13:19:32;;;;;;;9.77;4.40;;;27.60;79.40;;;;;;5005522;28;20588;-67
2023/10/11 13:21:59;;;;;;;9.90;4.80;;;27.70;81.10;;;;;;5005250;28;20587;-67
2023/10/11 13:24:27;;;;;;;18.33;4.00;;;27.90;78.60;;;;;;4998605;28;20881;-67